Time;durP1;ratioP1;P1;durP2;ratioP2;P2;SDS_P1;SDS_P2;PMS_P1;PMS_P2;Temp;Humidity;BMP_temperature;BMP_pressure;BME280_temperature;BME280_humidity;BME280_pressure;Samples;Min_cycle;Max_cycle;Signal;HPM_P1;HPM_P2
2022/01/24 00:00:21;;;;;;;;;;;5.00;99.90;;;;;;5076768;28;20015;-83
2022/01/24 00:02:46;;;;;;;;;;;5.00;99.90;;;;;;5075761;28;19978;-83
2022/01/24 00:05:12;;;;;;;;;;;5.00;99.90;;;;;;5075407;28;19928;-83
2022/01/24 00:07:38;;;;;;;;;;;5.00;99.90;;;;;;5058838;28;19932;-83
2022/01/24 00:10:08;;;;;;;;;;;5.00;99.90;;;;;;5076346;28;20042;-83
2022/01/24 00:15:19;;;;;;;;;;;5.00;99.90;;;;;;5075181;28;19925;-83
2022/01/24 00:18:03;;;;;;;;;;;5.00;99.90;;;;;;5075595;28;19946;-83
2022/01/24 00:28:23;;;;;;;;;;;5.00;99.90;;;;;;5058312;28;20374;-83
2022/01/24 00:30:48;;;;;;;;;;;5.00;99.90;;;;;;5074793;28;19986;-83
2022/01/24 00:33:15;;;;;;;;;;;5.00;99.90;;;;;;5075646;28;19947;-83
2022/01/24 00:35:40;;;;;;;;;;;4.90;99.90;;;;;;5076493;28;19970;-83
2022/01/24 00:38:06;;;;;;;;;;;4.90;99.90;;;;;;5076663;28;19924;-83
2022/01/24 00:40:39;;;;;;;;;;;4.90;99.90;;;;;;5074696;28;19931;-83
2022/01/24 00:43:11;;;;;;;;;;;4.90;99.90;;;;;;5079368;28;19925;-83
2022/01/24 00:45:54;;;;;;;;;;;4.90;99.90;;;;;;5095092;28;19920;-83
2022/01/24 00:53:49;;;;;;;;;;;4.90;99.90;;;;;;5097192;28;20441;-83
2022/01/24 00:56:15;;;;;;;;;;;4.90;99.90;;;;;;5096089;28;19924;-83
2022/01/24 00:58:41;;;;;;;;;;;4.90;99.90;;;;;;5098127;28;19946;-83
2022/01/24 01:01:06;;;;;;;;;;;4.90;99.90;;;;;;5096741;28;20388;-83
2022/01/24 01:03:32;;;;;;;;;;;4.90;99.90;;;;;;5098726;28;19977;-83
2022/01/24 01:19:26;;;;;;;;;;;4.90;99.90;;;;;;5094811;28;19979;-83
2022/01/24 01:21:52;;;;;;;;;;;4.80;99.90;;;;;;5078105;28;19989;-83
2022/01/24 01:24:18;;;;;;;;;;;4.80;99.90;;;;;;5096337;28;19924;-83
2022/01/24 01:26:51;;;;;;;;;;;4.80;99.90;;;;;;5096859;28;19924;-83
2022/01/24 01:29:22;;;;;;;;;;;4.80;99.90;;;;;;5062075;28;20011;-83
2022/01/24 01:31:59;;;;;;;;;;;4.80;99.90;;;;;;5096702;28;19977;-83
2022/01/24 01:53:45;;;;;;;;;;;4.80;99.90;;;;;;5078746;28;19924;-83
2022/01/24 01:56:07;;;;;;;;;;;4.80;99.90;;;;;;5079303;28;19932;-83
2022/01/24 01:58:33;;;;;;;;;;;4.80;99.90;;;;;;5062090;28;19924;-83
2022/01/24 02:00:59;;;;;;;;;;;4.80;99.90;;;;;;5077997;28;19932;-83
2022/01/24 02:03:26;;;;;;;;;;;4.80;99.90;;;;;;5080384;28;19947;-83
2022/01/24 02:05:52;;;;;;;;;;;4.70;99.90;;;;;;5078618;28;20276;-83
2022/01/24 02:08:18;;;;;;;;;;;4.80;99.90;;;;;;5079778;28;19978;-83
2022/01/24 02:10:44;;;;;;;;;;;4.70;99.90;;;;;;5079861;28;19970;-83
2022/01/24 02:13:10;;;;;;;;;;;4.80;99.90;;;;;;5078574;28;19924;-83
2022/01/24 02:18:46;;;;;;;;;;;4.70;99.90;;;;;;5037266;28;20104;-83
2022/01/24 02:21:41;;;;;;;;;;;4.70;99.90;;;;;;5021178;28;19921;-83
2022/01/24 02:24:09;;;;;;;;;;;4.70;99.90;;;;;;5022278;28;20350;-83
2022/01/24 02:26:34;;;;;;;;;;;4.70;99.90;;;;;;5038385;28;20027;-83
2022/01/24 02:31:47;;;;;;;;;;;5.10;99.90;;;;;;5020484;28;19925;-83
2022/01/24 02:34:35;;;;;;;;;;;4.70;99.90;;;;;;5020512;28;19928;-83
2022/01/24 02:37:05;;;;;;;;;;;4.70;99.90;;;;;;5037291;28;19925;-83
2022/01/24 02:50:22;;;;;;;;;;;4.70;99.90;;;;;;5021262;28;19929;-83
2022/01/24 02:52:47;;;;;;;;;;;4.70;99.90;;;;;;5020927;28;19987;-82
2022/01/24 02:55:13;;;;;;;;;;;4.70;99.90;;;;;;5091835;28;19928;-83
2022/01/24 02:57:38;;;;;;;;;;;4.80;99.90;;;;;;5081147;28;19924;-83
2022/01/24 03:00:04;;;;;;;;;;;4.60;99.90;;;;;;5097446;28;20015;-83
2022/01/24 03:02:29;;;;;;;;;;;4.60;99.90;;;;;;5115748;28;19976;-83
2022/01/24 03:04:57;;;;;;;;;;;4.70;99.90;;;;;;5120892;28;19931;-83
2022/01/24 03:07:23;;;;;;;;;;;4.60;99.90;;;;;;5101384;28;19976;-83
2022/01/24 03:09:49;;;;;;;;;;;4.60;99.90;;;;;;5120867;28;20014;-83
2022/01/24 03:12:26;;;;;;;;;;;4.60;99.90;;;;;;5084862;28;20366;-83
2022/01/24 03:14:51;;;;;;;;;;;4.60;99.90;;;;;;5101327;28;20360;-83
2022/01/24 03:17:17;;;;;;;;;;;4.60;99.90;;;;;;5101065;28;19924;-83
2022/01/24 03:19:42;;;;;;;;;;;4.60;99.90;;;;;;5119553;28;19989;-83
2022/01/24 03:22:11;;;;;;;;;;;4.60;99.90;;;;;;5101864;28;20015;-83
2022/01/24 03:24:36;;;;;;;;;;;4.70;99.90;;;;;;5120524;28;19930;-83
2022/01/24 03:27:02;;;;;;;;;;;4.60;99.90;;;;;;5101222;28;20089;-83
2022/01/24 03:29:28;;;;;;;;;;;4.60;99.90;;;;;;5119185;28;20032;-83
2022/01/24 03:31:53;;;;;;;;;;;4.60;99.90;;;;;;5111124;28;19923;-83
2022/01/24 03:34:19;;;;;;;;;;;4.60;99.90;;;;;;5122661;28;19923;-83
2022/01/24 03:36:44;;;;;;;;;;;4.60;99.90;;;;;;5108229;28;19924;-83
2022/01/24 03:39:10;;;;;;;;;;;4.60;99.90;;;;;;5135976;28;19924;-83
2022/01/24 03:41:36;;;;;;;;;;;4.50;99.90;;;;;;5121934;28;19931;-83
2022/01/24 03:44:04;;;;;;;;;;;4.50;99.90;;;;;;5093446;28;19932;-83
2022/01/24 03:46:46;;;;;;;;;;;4.60;99.90;;;;;;5081380;28;19924;-83
2022/01/24 03:49:44;;;;;;;;;;;4.50;99.90;;;;;;5065151;28;19924;-83
2022/01/24 03:51:57;;;;;;;;;;;4.50;99.90;;;;;;5100156;28;20424;-83
2022/01/24 03:54:23;;;;;;;;;;;4.50;99.90;;;;;;5064447;28;19928;-83
2022/01/24 03:56:48;;;;;;;;;;;5.00;99.90;;;;;;5080431;28;19924;-83
2022/01/24 03:59:14;;;;;;;;;;;4.60;99.90;;;;;;5079767;28;19924;-83
2022/01/24 04:01:39;;;;;;;;;;;5.00;99.90;;;;;;5080109;28;19939;-83
2022/01/24 04:04:05;;;;;;;;;;;4.50;99.90;;;;;;5080287;28;20382;-83
2022/01/24 04:06:30;;;;;;;;;;;4.50;99.90;;;;;;5080187;28;20298;-83
2022/01/24 04:08:56;;;;;;;;;;;4.60;99.90;;;;;;5097905;28;19931;-83
2022/01/24 04:11:21;;;;;;;;;;;4.50;99.90;;;;;;5097888;28;19928;-83
2022/01/24 04:13:56;;;;;;;;;;;4.60;99.90;;;;;;5079040;28;19924;-83
2022/01/24 04:16:31;;;;;;;;;;;4.70;99.90;;;;;;5097398;28;19999;-83
2022/01/24 04:19:30;;;;;;;;;;;4.50;99.90;;;;;;5078942;28;19927;-83
2022/01/24 04:21:49;;;;;;;;;;;4.90;99.90;;;;;;5096415;28;19931;-83
2022/01/24 04:24:20;;;;;;;;;;;4.50;99.90;;;;;;5078112;28;19920;-83
2022/01/24 04:26:45;;;;;;;;;;;4.50;99.90;;;;;;5077473;28;19928;-83
2022/01/24 04:29:11;;;;;;;;;;;4.50;99.90;;;;;;5096069;28;19927;-83
2022/01/24 04:31:37;;;;;;;;;;;4.60;99.90;;;;;;5077359;28;19932;-83
2022/01/24 04:34:02;;;;;;;;;;;4.50;99.90;;;;;;5096060;28;19951;-83
2022/01/24 04:36:28;;;;;;;;;;;4.50;99.90;;;;;;5077795;28;19947;-83
2022/01/24 04:38:54;;;;;;;;;;;4.50;99.90;;;;;;5077597;28;19925;-83
2022/01/24 04:41:27;;;;;;;;;;;4.50;99.90;;;;;;5061242;28;19924;-83
2022/01/24 04:43:59;;;;;;;;;;;4.50;99.90;;;;;;5068249;28;19923;-83
2022/01/24 04:51:56;;;;;;;;;;;4.70;99.90;;;;;;5080067;28;19924;-84
2022/01/24 04:57:08;;;;;;;;;;;4.80;99.90;;;;;;5100564;28;19924;-83
2022/01/24 04:59:33;;;;;;;;;;;4.50;99.90;;;;;;5077765;28;20331;-83
2022/01/24 05:01:59;;;;;;;;;;;4.90;99.90;;;;;;5115406;28;19924;-83
2022/01/24 05:04:24;;;;;;;;;;;4.50;99.90;;;;;;5097191;28;19924;-84
2022/01/24 05:06:50;;;;;;;;;;;4.50;99.90;;;;;;5115405;28;20262;-83
2022/01/24 05:09:17;;;;;;;;;;;4.60;99.90;;;;;;5087402;28;19994;-83
2022/01/24 05:24:47;;;;;;;;;;;4.90;99.90;;;;;;5076638;28;19983;-83
2022/01/24 05:27:13;;;;;;;;;;;4.60;99.90;;;;;;5093126;28;19928;-83
2022/01/24 05:29:38;;;;;;;;;;;4.60;99.90;;;;;;5096763;28;19946;-83
2022/01/24 05:32:05;;;;;;;;;;;4.70;99.90;;;;;;5079355;28;19924;-83
2022/01/24 05:34:30;;;;;;;;;;;4.70;99.90;;;;;;5096802;28;20015;-83
2022/01/24 05:36:56;;;;;;;;;;;4.70;99.90;;;;;;5096680;28;20337;-83
2022/01/24 05:39:22;;;;;;;;;;;4.70;99.90;;;;;;5114901;28;19976;-83
2022/01/24 05:41:47;;;;;;;;;;;4.70;99.90;;;;;;5097412;28;19923;-83
2022/01/24 05:44:13;;;;;;;;;;;4.70;99.90;;;;;;5115801;28;19931;-83
2022/01/24 05:46:38;;;;;;;;;;;4.70;99.90;;;;;;5097645;28;20369;-83
2022/01/24 05:49:04;;;;;;;;;;;4.70;99.90;;;;;;5097686;28;19924;-83
2022/01/24 05:51:30;;;;;;;;;;;4.70;99.90;;;;;;5097272;28;20370;-84
2022/01/24 05:53:56;;;;;;;;;;;4.70;99.90;;;;;;5080403;28;20389;-83
2022/01/24 05:56:22;;;;;;;;;;;4.70;99.90;;;;;;5080559;28;19969;-83
2022/01/24 05:58:48;;;;;;;;;;;4.70;99.90;;;;;;5097767;28;19923;-83
2022/01/24 06:01:13;;;;;;;;;;;4.70;99.90;;;;;;5080871;28;19924;-83
2022/01/24 06:03:39;;;;;;;;;;;4.80;99.90;;;;;;5077385;28;20336;-83
2022/01/24 06:06:05;;;;;;;;;;;4.70;99.90;;;;;;5077268;28;19924;-84
2022/01/24 06:08:30;;;;;;;;;;;4.70;99.90;;;;;;5077514;28;19924;-83
2022/01/24 06:10:58;;;;;;;;;;;4.70;99.90;;;;;;5077722;28;20401;-83
2022/01/24 06:13:24;;;;;;;;;;;4.70;99.90;;;;;;5095455;28;19924;-83
2022/01/24 06:15:50;;;;;;;;;;;4.70;99.90;;;;;;5095322;28;19931;-83
2022/01/24 06:18:16;;;;;;;;;;;5.40;99.90;;;;;;5095358;28;19924;-83
2022/01/24 06:20:43;;;;;;;;;;;4.60;99.90;;;;;;5095722;28;19932;-83
2022/01/24 06:23:11;;;;;;;;;;;4.70;99.90;;;;;;5104023;28;19930;-83
2022/01/24 06:25:37;;;;;;;;;;;4.60;99.90;;;;;;5095940;28;19924;-83
2022/01/24 06:28:02;;;;;;;;;;;4.60;99.90;;;;;;5078039;28;20294;-83
2022/01/24 06:30:28;;;;;;;;;;;4.60;99.90;;;;;;5098746;28;20006;-83
2022/01/24 06:32:53;;;;;;;;;;;4.60;99.90;;;;;;5080728;28;19990;-83
2022/01/24 06:35:19;;;;;;;;;;;4.60;99.90;;;;;;5099691;28;19924;-83
2022/01/24 06:37:44;;;;;;;;;;;4.60;99.90;;;;;;5099532;28;19924;-83
2022/01/24 06:40:10;;;;;;;;;;;4.60;99.90;;;;;;5081037;28;19924;-83
2022/01/24 06:42:38;;;;;;;;;;;4.60;99.90;;;;;;5098674;28;20291;-83
2022/01/24 06:45:04;;;;;;;;;;;4.60;99.90;;;;;;5080265;28;19928;-83
2022/01/24 06:47:30;;;;;;;;;;;4.60;99.90;;;;;;5098509;28;19982;-83
2022/01/24 06:49:55;;;;;;;;;;;4.60;99.90;;;;;;5080944;28;19924;-83
2022/01/24 06:52:21;;;;;;;;;;;4.60;99.90;;;;;;5080715;28;19924;-83
2022/01/24 06:54:46;;;;;;;;;;;4.70;99.90;;;;;;5080317;28;19924;-83
2022/01/24 06:57:12;;;;;;;;;;;5.10;99.90;;;;;;5098596;28;19930;-83
2022/01/24 06:59:39;;;;;;;;;;;4.70;99.90;;;;;;5101709;28;19931;-83
2022/01/24 07:02:05;;;;;;;;;;;4.70;99.90;;;;;;5095565;28;19976;-85
2022/01/24 07:04:31;;;;;;;;;;;4.70;99.90;;;;;;5094972;28;20375;-85
2022/01/24 07:06:57;;;;;;;;;;;4.70;99.90;;;;;;5078372;28;19931;-85
2022/01/24 07:09:22;;;;;;;;;;;4.60;99.90;;;;;;5095335;28;20351;-84
2022/01/24 07:11:50;;;;;;;;;;;4.70;99.90;;;;;;5095223;28;19924;-85
2022/01/24 07:14:15;;;;;;;;;;;4.70;99.90;;;;;;5094992;28;20397;-85
2022/01/24 07:19:22;;;;;;;;;;;4.60;99.90;;;;;;5095371;28;20255;-84
2022/01/24 07:21:48;;;;;;;;;;;4.60;99.90;;;;;;5061203;28;19931;-84
2022/01/24 07:24:14;;;;;;;;;;;4.60;99.90;;;;;;5094917;28;19924;-85
2022/01/24 07:26:39;;;;;;;;;;;4.60;99.90;;;;;;5095299;28;19924;-84
2022/01/24 07:29:05;;;;;;;;;;;4.60;99.90;;;;;;5094595;28;19931;-85
2022/01/24 07:31:31;;;;;;;;;;;5.00;99.90;;;;;;5095147;28;19977;-85
2022/01/24 07:33:56;;;;;;;;;;;4.60;99.90;;;;;;5094563;28;20075;-85
2022/01/24 07:36:22;;;;;;;;;;;4.60;99.90;;;;;;5094866;28;19924;-84
2022/01/24 07:38:48;;;;;;;;;;;5.10;99.90;;;;;;5078028;28;19954;-85
2022/01/24 07:41:17;;;;;;;;;;;5.00;99.90;;;;;;5094167;28;19924;-85
2022/01/24 07:43:42;;;;;;;;;;;4.50;99.90;;;;;;5094811;28;19941;-84
2022/01/24 07:46:08;;;;;;;;;;;4.60;99.90;;;;;;5094534;28;20413;-85
2022/01/24 07:48:33;;;;;;;;;;;4.60;99.90;;;;;;5094405;28;19981;-85
2022/01/24 07:50:59;;;;;;;;;;;4.60;99.90;;;;;;5077954;28;19946;-84
2022/01/24 07:53:24;;;;;;;;;;;4.60;99.90;;;;;;5095596;28;19924;-85
2022/01/24 07:55:50;;;;;;;;;;;4.60;99.90;;;;;;5077429;28;19924;-84
2022/01/24 07:58:16;;;;;;;;;;;5.10;99.90;;;;;;5094284;28;19928;-84
2022/01/24 08:00:41;;;;;;;;;;;4.60;99.90;;;;;;5066158;28;19924;-84
2022/01/24 08:03:07;;;;;;;;;;;4.80;99.90;;;;;;5056899;28;19931;-85
2022/01/24 08:05:34;;;;;;;;;;;4.60;99.90;;;;;;5057248;28;19943;-84
2022/01/24 08:07:59;;;;;;;;;;;4.60;99.90;;;;;;5073638;28;19932;-85
2022/01/24 08:10:25;;;;;;;;;;;4.60;99.90;;;;;;5075104;28;19925;-84
2022/01/24 08:12:51;;;;;;;;;;;4.60;99.90;;;;;;5073639;28;19975;-85
2022/01/24 08:15:16;;;;;;;;;;;4.70;99.90;;;;;;5073681;28;19924;-85
2022/01/24 08:17:43;;;;;;;;;;;5.20;99.90;;;;;;5073698;28;19921;-85
2022/01/24 08:20:09;;;;;;;;;;;4.60;99.90;;;;;;5073613;28;19967;-85
2022/01/24 08:22:35;;;;;;;;;;;4.60;99.90;;;;;;5073538;28;19924;-85
2022/01/24 08:25:04;;;;;;;;;;;4.60;99.90;;;;;;5057067;28;19974;-85
2022/01/24 08:27:31;;;;;;;;;;;4.60;99.90;;;;;;5073746;28;19925;-85
2022/01/24 08:29:56;;;;;;;;;;;4.60;99.90;;;;;;5056680;28;20066;-85
2022/01/24 08:32:22;;;;;;;;;;;4.70;99.90;;;;;;5073597;28;19925;-85
2022/01/24 08:34:47;;;;;;;;;;;4.70;99.90;;;;;;5056429;28;19928;-85
2022/01/24 08:37:13;;;;;;;;;;;4.70;99.90;;;;;;5073638;28;19974;-85
2022/01/24 08:39:39;;;;;;;;;;;4.70;99.90;;;;;;5056298;28;19981;-85
2022/01/24 08:42:24;;;;;;;;;;;4.70;99.90;;;;;;5073176;28;19973;-85
2022/01/24 08:47:37;;;;;;;;;;;4.80;99.90;;;;;;5056213;28;19969;-85
2022/01/24 08:50:04;;;;;;;;;;;4.80;99.90;;;;;;5073014;28;19924;-85
2022/01/24 08:52:29;;;;;;;;;;;4.80;99.90;;;;;;5072881;28;20374;-85
2022/01/24 08:54:55;;;;;;;;;;;4.80;99.90;;;;;;5056190;28;20057;-85
2022/01/24 08:57:25;;;;;;;;;;;4.80;99.90;;;;;;5056382;28;19971;-85
2022/01/24 08:59:51;;;;;;;;;;;4.90;99.90;;;;;;5060401;28;19961;-85
2022/01/24 09:02:17;;;;;;;;;;;4.90;99.90;;;;;;5076229;28;19924;-84
2022/01/24 09:04:42;;;;;;;;;;;4.90;99.90;;;;;;5093113;28;19951;-85
2022/01/24 09:07:09;;;;;;;;;;;4.90;99.90;;;;;;5076214;28;20375;-85
2022/01/24 09:09:35;;;;;;;;;;;5.00;99.90;;;;;;5075826;28;19927;-85
2022/01/24 09:12:01;;;;;;;;;;;4.90;99.90;;;;;;5093299;28;19970;-85
2022/01/24 09:14:27;;;;;;;;;;;4.80;99.90;;;;;;5075853;28;20378;-85
2022/01/24 09:16:52;;;;;;;;;;;4.80;99.90;;;;;;5093244;28;19924;-85
2022/01/24 09:19:18;;;;;;;;;;;4.80;99.90;;;;;;5092822;28;19931;-85
2022/01/24 09:21:44;;;;;;;;;;;4.80;99.90;;;;;;5075859;28;19930;-85
2022/01/24 09:24:09;;;;;;;;;;;4.80;99.90;;;;;;5092495;28;20328;-85
2022/01/24 09:26:35;;;;;;;;;;;4.80;99.90;;;;;;5075880;28;19928;-85
2022/01/24 09:29:00;;;;;;;;;;;4.80;99.90;;;;;;5092525;28;19931;-85
2022/01/24 09:31:26;;;;;;;;;;;4.80;99.90;;;;;;5093041;28;19928;-85
2022/01/24 09:33:52;;;;;;;;;;;5.30;99.90;;;;;;5092699;28;20022;-85
2022/01/24 09:36:18;;;;;;;;;;;4.80;99.90;;;;;;5093180;28;19981;-85
2022/01/24 09:38:44;;;;;;;;;;;4.80;99.90;;;;;;5092872;28;20285;-85
2022/01/24 09:41:10;;;;;;;;;;;4.80;99.90;;;;;;5092936;28;20022;-85
2022/01/24 09:43:36;;;;;;;;;;;4.90;99.90;;;;;;5092912;28;20271;-85
2022/01/24 09:46:02;;;;;;;;;;;4.80;99.90;;;;;;5075521;28;19924;-85
2022/01/24 09:48:28;;;;;;;;;;;5.20;99.90;;;;;;5075731;28;19931;-85
2022/01/24 09:50:53;;;;;;;;;;;4.90;99.90;;;;;;5092466;28;20020;-85
2022/01/24 09:53:20;;;;;;;;;;;4.90;99.90;;;;;;5094166;28;19930;-85
2022/01/24 09:55:46;;;;;;;;;;;4.90;99.90;;;;;;5092804;28;19935;-85
2022/01/24 09:58:12;;;;;;;;;;;5.00;99.90;;;;;;5093055;28;20359;-85
2022/01/24 10:00:38;;;;;;;;;;;5.00;99.90;;;;;;5064566;28;19931;-85
2022/01/24 10:03:03;;;;;;;;;;;5.00;99.90;;;;;;5072326;28;19928;-85
2022/01/24 10:05:33;;;;;;;;;;;5.00;99.90;;;;;;5075795;28;20011;-85
2022/01/24 10:08:00;;;;;;;;;;;5.10;99.90;;;;;;5059750;28;19924;-85
2022/01/24 10:10:43;;;;;;;;;;;5.10;99.90;;;;;;5076074;28;20375;-85
2022/01/24 10:19:21;;;;;;;;;;;5.10;99.90;;;;;;5018605;28;19932;-85
2022/01/24 10:21:46;;;;;;;;;;;5.10;99.90;;;;;;5018565;28;19947;-85
2022/01/24 10:24:13;;;;;;;;;;;5.10;99.90;;;;;;5002051;28;19929;-85
2022/01/24 10:26:39;;;;;;;;;;;5.10;99.90;;;;;;5002319;28;19931;-85
2022/01/24 10:29:11;;;;;;;;;;;5.10;99.90;;;;;;5018662;28;20008;-85
2022/01/24 10:31:44;;;;;;;;;;;5.10;99.90;;;;;;5018707;28;19926;-85
2022/01/24 10:34:14;;;;;;;;;;;5.10;99.90;;;;;;5018180;28;19925;-85
2022/01/24 10:36:45;;;;;;;;;;;5.60;99.90;;;;;;5025508;28;19925;-85
2022/01/24 10:39:14;;;;;;;;;;;5.10;99.90;;;;;;5029298;28;19921;-85
2022/01/24 10:41:59;;;;;;;;;;;5.10;99.90;;;;;;5040055;28;19932;-85
2022/01/24 10:44:27;;;;;;;;;;;5.10;99.90;;;;;;5039672;28;19972;-85
2022/01/24 10:46:53;;;;;;;;;;;5.10;99.90;;;;;;5021623;28;19935;-85
2022/01/24 10:49:30;;;;;;;;;;;5.10;99.90;;;;;;5021444;28;19972;-85
2022/01/24 10:52:07;;;;;;;;;;;5.10;99.90;;;;;;5020009;28;20327;-85
2022/01/24 10:54:32;;;;;;;;;;;5.10;99.90;;;;;;5059539;28;19939;-85
2022/01/24 10:56:58;;;;;;;;;;;5.10;99.90;;;;;;5076347;28;19925;-85
2022/01/24 10:59:25;;;;;;;;;;;5.10;99.90;;;;;;5076967;28;19947;-85
2022/01/24 11:01:58;;;;;;;;;;;5.20;99.90;;;;;;5079345;28;19924;-85
2022/01/24 11:04:24;;;;;;;;;;;5.20;99.90;;;;;;5096691;28;20361;-85
2022/01/24 11:06:51;;;;;;;;;;;5.50;99.90;;;;;;5096495;28;20294;-84
2022/01/24 11:09:21;;;;;;;;;;;5.20;99.90;;;;;;5096610;28;20438;-85
2022/01/24 11:11:47;;;;;;;;;;;5.20;99.90;;;;;;5096186;28;19920;-85
2022/01/24 11:14:16;;;;;;;;;;;5.20;99.90;;;;;;5095844;28;20409;-85
2022/01/24 11:16:42;;;;;;;;;;;5.20;99.90;;;;;;5077879;28;19978;-85
2022/01/24 11:19:13;;;;;;;;;;;5.20;99.90;;;;;;5079264;28;19924;-85
2022/01/24 11:21:39;;;;;;;;;;;5.70;99.90;;;;;;5095103;28;20425;-85
2022/01/24 11:24:07;;;;;;;;;;;5.20;99.90;;;;;;5096753;28;19928;-85
2022/01/24 11:26:33;;;;;;;;;;;5.20;99.90;;;;;;5078245;28;20090;-85
2022/01/24 11:28:58;;;;;;;;;;;5.20;99.90;;;;;;5096386;28;20382;-85
2022/01/24 11:31:26;;;;;;;;;;;5.20;99.90;;;;;;5078054;28;19924;-85
2022/01/24 11:33:59;;;;;;;;;;;5.30;99.90;;;;;;5095082;28;19980;-85
2022/01/24 11:36:39;;;;;;;;;;;5.20;99.90;;;;;;5078380;28;20370;-84
2022/01/24 11:39:05;;;;;;;;;;;5.20;99.90;;;;;;5078217;28;19924;-84
2022/01/24 11:41:35;;;;;;;;;;;5.70;99.90;;;;;;5094590;28;20011;-85
2022/01/24 11:44:15;;;;;;;;;;;5.20;99.90;;;;;;5095477;28;19924;-85
2022/01/24 11:46:48;;;;;;;;;;;5.30;99.90;;;;;;5094779;28;19975;-84
2022/01/24 11:49:26;;;;;;;;;;;5.20;99.90;;;;;;5077581;28;20026;-84
2022/01/24 11:52:00;;;;;;;;;;;5.20;99.90;;;;;;5094416;28;19977;-84
2022/01/24 11:54:31;;;;;;;;;;;5.20;99.90;;;;;;5078064;28;19924;-84
2022/01/24 11:57:15;;;;;;;;;;;5.40;99.90;;;;;;5096050;28;20298;-84
2022/01/24 11:59:40;;;;;;;;;;;5.20;99.90;;;;;;5091534;28;19973;-84
2022/01/24 12:02:07;;;;;;;;;;;5.50;99.90;;;;;;5074192;28;19924;-84
2022/01/24 12:04:51;;;;;;;;;;;5.20;99.90;;;;;;5074539;28;20098;-84
2022/01/24 12:07:24;;;;;;;;;;;5.20;99.90;;;;;;5074009;28;19925;-84
2022/01/24 12:09:51;;;;;;;;;;;5.30;99.90;;;;;;5057560;28;19932;-84
2022/01/24 12:12:35;;;;;;;;;;;5.30;99.90;;;;;;5075317;28;19924;-84
2022/01/24 12:15:01;;;;;;;;;;;5.30;99.90;;;;;;5074489;28;20252;-84
2022/01/24 12:17:44;;;;;;;;;;;5.30;99.90;;;;;;5073767;28;19932;-84
2022/01/24 12:20:28;;;;;;;;;;;5.30;99.90;;;;;;5073880;28;19931;-84
2022/01/24 12:22:53;;;;;;;;;;;5.30;99.90;;;;;;5075412;28;19986;-84
2022/01/24 12:25:19;;;;;;;;;;;5.30;99.90;;;;;;5040266;28;19975;-85
2022/01/24 12:28:05;;;;;;;;;;;5.70;99.90;;;;;;5073648;28;19932;-84
2022/01/24 12:30:49;;;;;;;;;;;5.30;99.90;;;;;;5059516;28;19924;-84
2022/01/24 12:33:27;;;;;;;;;;;5.30;99.90;;;;;;5073494;28;19932;-84
2022/01/24 12:35:53;;;;;;;;;;;5.40;99.90;;;;;;5073826;28;20005;-84
2022/01/24 12:38:18;;;;;;;;;;;5.40;99.90;;;;;;5057189;28;20359;-84
2022/01/24 12:40:45;;;;;;;;;;;5.60;99.90;;;;;;5056404;28;20020;-84
2022/01/24 12:43:19;;;;;;;;;;;5.90;99.90;;;;;;5073279;28;20286;-84
2022/01/24 12:48:29;;;;;;;;;;;5.40;99.90;;;;;;5056745;28;19924;-84
2022/01/24 12:50:55;;;;;;;;;;;5.40;99.90;;;;;;5056746;28;20027;-84
2022/01/24 12:53:21;;;;;;;;;;;5.40;99.90;;;;;;5073194;28;20362;-84
2022/01/24 12:56:01;;;;;;;;;;;5.40;99.90;;;;;;5072716;28;19968;-84
2022/01/24 12:58:31;;;;;;;;;;;5.40;99.90;;;;;;5074597;28;19920;-84
2022/01/24 13:00:56;;;;;;;;;;;5.40;99.90;;;;;;5072973;28;19978;-84
2022/01/24 13:03:22;;;;;;;;;;;5.40;99.90;;;;;;5056005;28;19924;-84
2022/01/24 13:05:48;;;;;;;;;;;5.40;99.90;;;;;;5073034;28;20318;-84
2022/01/24 13:08:15;;;;;;;;;;;5.40;99.90;;;;;;5072860;28;19924;-84
2022/01/24 13:10:40;;;;;;;;;;;5.30;99.90;;;;;;5055986;28;19925;-84
2022/01/24 13:13:10;;;;;;;;;;;5.30;99.90;;;;;;5072572;28;19931;-84
2022/01/24 13:21:12;;;;;;;;;;;5.30;99.90;;;;;;5074046;28;19973;-84
2022/01/24 13:23:42;;;;;;;;;;;5.50;99.90;;;;;;5074549;28;20023;-85
2022/01/24 13:26:08;;;;;;;;;;;5.30;99.90;;;;;;5072562;28;20011;-84
2022/01/24 13:28:34;;;;;;;;;;;5.20;99.90;;;;;;5055649;28;19928;-84
2022/01/24 13:31:03;;;;;;;;;;;5.30;99.90;;;;;;5073174;28;20309;-84
2022/01/24 13:33:30;;;;;;;;;;;5.80;99.90;;;;;;5055717;28;20397;-84
2022/01/24 13:36:00;;;;;;;;;;;5.30;99.90;;;;;;5072635;28;19925;-84
2022/01/24 13:38:33;;;;;;;;;;;5.20;99.90;;;;;;5071671;28;19931;-84
2022/01/24 13:41:10;;;;;;;;;;;5.20;99.90;;;;;;5072244;28;20379;-85
2022/01/24 13:43:38;;;;;;;;;;;5.20;99.90;;;;;;5072375;28;20019;-84
2022/01/24 13:46:05;;;;;;;;;;;5.20;99.90;;;;;;5072517;28;19929;-84
2022/01/24 13:48:37;;;;;;;;;;;5.20;99.90;;;;;;5055759;28;19925;-84
2022/01/24 13:51:02;;;;;;;;;;;5.20;99.90;;;;;;5072506;28;20199;-84
2022/01/24 13:53:29;;;;;;;;;;;5.20;99.90;;;;;;5072132;28;19932;-84
2022/01/24 13:55:54;;;;;;;;;;;5.90;99.90;;;;;;5072184;28;20015;-84
2022/01/24 13:58:24;;;;;;;;;;;5.10;99.90;;;;;;5072363;28;19974;-84
2022/01/24 14:01:00;;;;;;;;;;;5.10;99.90;;;;;;5085492;28;19946;-84
2022/01/24 14:03:27;;;;;;;;;;;5.10;99.90;;;;;;5075366;28;19931;-84
2022/01/24 14:06:12;;;;;;;;;;;5.10;99.90;;;;;;5092794;28;20283;-84
2022/01/24 14:08:38;;;;;;;;;;;5.10;99.90;;;;;;5092476;28;19928;-84
2022/01/24 14:11:15;;;;;;;;;;;5.20;99.90;;;;;;5075627;28;19930;-84
2022/01/24 14:13:47;;;;;;;;;;;5.20;99.90;;;;;;5092405;28;19932;-84
2022/01/24 14:16:33;;;;;;;;;;;5.20;99.90;;;;;;5092693;28;20015;-84
2022/01/24 14:19:02;;;;;;;;;;;5.10;99.90;;;;;;5092455;28;19920;-84
2022/01/24 14:21:28;;;;;;;;;;;5.10;99.90;;;;;;5075914;28;20019;-84
2022/01/24 14:23:54;;;;;;;;;;;5.10;99.90;;;;;;5092352;28;19998;-84
2022/01/24 14:26:24;;;;;;;;;;;5.10;99.90;;;;;;5092286;28;19924;-84
2022/01/24 14:29:10;;;;;;;;;;;5.10;99.90;;;;;;5092356;28;20302;-84
2022/01/24 14:31:35;;;;;;;;;;;5.10;99.90;;;;;;5075206;28;19924;-84
2022/01/24 14:34:03;;;;;;;;;;;5.00;99.90;;;;;;5092112;28;19947;-84
2022/01/24 14:36:28;;;;;;;;;;;5.00;99.90;;;;;;5092629;28;19931;-84
2022/01/24 14:38:57;;;;;;;;;;;5.30;99.90;;;;;;5092246;28;20378;-84
2022/01/24 14:41:34;;;;;;;;;;;5.30;99.90;;;;;;5091959;28;19924;-84
2022/01/24 14:46:45;;;;;;;;;;;4.90;99.90;;;;;;5092086;28;19924;-83
2022/01/24 14:49:12;;;;;;;;;;;5.00;99.90;;;;;;5075468;28;19920;-84
2022/01/24 14:51:43;;;;;;;;;;;4.90;99.90;;;;;;5095388;28;19924;-84
2022/01/24 14:54:10;;;;;;;;;;;4.90;99.90;;;;;;5095553;28;19932;-84
2022/01/24 14:56:36;;;;;;;;;;;5.20;99.90;;;;;;5095420;28;20436;-85
2022/01/24 14:59:02;;;;;;;;;;;4.80;99.90;;;;;;5095937;28;19930;-84
2022/01/24 15:01:28;;;;;;;;;;;5.10;99.90;;;;;;5060859;28;19947;-84
2022/01/24 15:03:54;;;;;;;;;;;4.80;99.90;;;;;;5058243;28;20375;-84
2022/01/24 15:06:20;;;;;;;;;;;4.80;99.90;;;;;;5058702;28;20325;-84
2022/01/24 15:08:47;;;;;;;;;;;4.80;99.90;;;;;;5074924;28;19938;-84
2022/01/24 15:11:15;;;;;;;;;;;4.70;99.90;;;;;;5058311;28;19985;-84
2022/01/24 15:13:51;;;;;;;;;;;4.70;99.90;;;;;;5076055;28;20378;-84
2022/01/24 15:16:18;;;;;;;;;;;4.70;99.90;;;;;;5058780;28;19924;-84
2022/01/24 15:26:49;;;;;;;;;;;4.70;99.90;;;;;;5074916;28;20010;-84
2022/01/24 15:29:15;;;;;;;;;;;4.40;99.90;;;;;;5074779;28;20395;-84
2022/01/24 15:31:41;;;;;;;;;;;4.70;99.90;;;;;;5074959;28;19927;-84
2022/01/24 15:34:06;;;;;;;;;;;4.70;99.90;;;;;;5074379;28;20371;-84
2022/01/24 15:36:32;;;;;;;;;;;4.70;99.90;;;;;;5074862;28;19970;-84
2022/01/24 15:39:01;;;;;;;;;;;5.10;99.90;;;;;;5074609;28;20442;-84
2022/01/24 15:41:26;;;;;;;;;;;4.60;99.90;;;;;;5074409;28;19924;-84
2022/01/24 15:48:46;;;;;;;;;;;4.60;99.90;;;;;;5057503;28;19924;-84
2022/01/24 15:51:12;;;;;;;;;;;4.50;99.90;;;;;;5057552;28;19925;-84
2022/01/24 15:53:38;;;;;;;;;;;4.50;99.90;;;;;;5057402;28;19924;-84
2022/01/24 15:57:39;;;;;;;;;;;4.50;99.90;;;;;;5074089;28;20474;-84
2022/01/24 15:59:05;;;;;;;;;;;4.60;99.90;;;;;;5073867;28;19931;-84
2022/01/24 16:01:33;;;;;;;;;;;4.50;99.90;;;;;;5091601;28;19920;-84
2022/01/24 16:03:59;;;;;;;;;;;4.50;99.90;;;;;;5074062;28;20371;-85
2022/01/24 16:06:25;;;;;;;;;;;4.60;99.90;;;;;;5074105;28;19924;-84
2022/01/24 16:08:51;;;;;;;;;;;4.50;99.90;;;;;;5074177;28;20396;-84
2022/01/24 16:11:18;;;;;;;;;;;4.50;99.90;;;;;;5073991;28;19924;-84
2022/01/24 16:13:43;;;;;;;;;;;4.90;99.90;;;;;;5073636;28;19933;-84
2022/01/24 16:16:10;;;;;;;;;;;4.50;99.90;;;;;;5073881;28;19924;-84
2022/01/24 16:18:39;;;;;;;;;;;4.90;99.90;;;;;;5073748;28;20423;-84
2022/01/24 16:21:25;;;;;;;;;;;4.40;99.90;;;;;;5073622;28;20367;-84
2022/01/24 16:26:38;;;;;;;;;;;5.10;99.90;;;;;;5057286;28;20290;-84
2022/01/24 16:29:03;;;;;;;;;;;4.40;99.90;;;;;;5073757;28;19930;-84
2022/01/24 16:31:29;;;;;;;;;;;4.60;99.90;;;;;;5074916;28;19972;-84
2022/01/24 16:33:54;;;;;;;;;;;4.40;99.90;;;;;;5074111;28;19924;-83
2022/01/24 16:36:20;;;;;;;;;;;4.90;99.90;;;;;;5077912;28;19924;-82
2022/01/24 16:38:47;;;;;;;;;;;4.40;99.90;;;;;;5081542;28;20046;-83
2022/01/24 16:41:17;;;;;;;;;;;4.40;99.90;;;;;;5080347;28;19978;-83